BWI weather

Baltimore/Washington International Thurgood Marshall Airport
Baltimore, Maryland, United States

Public forecast

Using degrees Fahrenheit for public forecast. Weather courtesy of forecast.io.

METAR (pilot weather report)

Retrieved 2019/04/21 11:54 UTC (13 minutes ago):

KBWI 211154Z 24008KT 10SM FEW040 FEW095 FEW180 SCT250 13/07 A2994 RMK AO2 SLP138 T01280067 10150 20111 51028 $

TAF (pilot weather forecast)

Retrieved 2019/04/21 12:36 UTC (0 seconds ago):

TAF KBWI 211132Z 2112/2218 22004KT P6SM FEW090 FEW250 FM211500 24005KT P6SM SCT100 FM211800 26005KT P6SM BKN050 FM212100 29006KT P6SM VCSH BKN050 FM220100 30005KT P6SM BKN050 FM220600 32004KT P6SM BKN050